Aérodrome :
LOGIN :

S'inscrire | Disclaimer

   EN    FR    IT 

 










Légende :    VFR   VFR Marginal   IFR   IFR Intensif   IFR Très Intensif
Visi : 
Plafond : 
>= 8 km
>= 3000ft
5 à 8 km
1000 à 3000 ft
1500m à 5 km
500 à 1000 ft
800 à 1500m
200 à 500 ft
< 800m
< 200 ft
Symboles :   Orages  Brouillard  Fortes neiges  Fortes précipitations  Vent > 20 kt
SIGMETs :   Divers  Orages  Givrage  Turbulence  Onde Orograph.  Cendres Volcan.







- Altitude de l'aérodrome : 116 ft
- Code IATA : ISC
- Voir les cartes d'approche


EGHE - Scilly Isles / St Mary's

DERNIER METAR :
  • 181420Z 23012KT 9999 FEW009 SCT012 BKN022 11/09 Q0999

METARs EXPIRÉS :
  • 181350Z 24014KT 8000 FEW007 SCT012 BKN017 11/08 Q0999
  • 181250Z 20012KT 9999 -RA SCT015 BKN024 11/10 Q0999
  • 181220Z 20019G29KT 9999 VCSH SCT011 BKN019 11/10 Q0999
  • 181150Z 21014KT 9999 -RA FEW009 BKN020 10/09 Q0999

TAF TAF EGHE
Valide du 18 à 15h jusqu'au 18 à 17h UTC


181402Z 1815/1817 21016KT 9999 SCT012 BKN020
TEMPO 1815/1817 7000 SHRA BKN012 BKN020CB
PROB30
TEMPO 1815/1817 22019G29KT 3000 +TSRA
Pas de NOTAMs connus pour ce terrain.
4 SIGMETs publiés pour la FIR London (EGTT) :
 
Onde orographique forte
EGTT SIGMET 08 VALID 181500/181900 EGRR
EGTT LONDON FIR SEV MTW FCST WI N5220 W00530 - N5500 W00530 - N5500 W00015 - N5024 W00255 - N4959 W00548 - N5220 W00530 FL030/250 STNR WKN=
Turbulence forte
EGTT SIGMET 07 VALID 181100/181500 EGRR
EGTT LONDON FIR SEV TURB FCST WI N5100 W00800 - N5117 W00728 - N4932 W00752 - N4932 W00800 - N5100 W00800 FL220/350 MOV E 10KT WKN=
Turbulence forte
EGTT SIGMET 06 VALID 181100/181500 EGRR
EGTT LONDON FIR SEV TURB FCST WI N5000 W00200 - N4919 W00530 - N5500 W00530 - N5500 E00100 - N5000 W00017 - N5000 W00200 SFC/FL060 MOV E 10KT WKN=
Onde orographique forte
EGTT SIGMET 05 VALID 181100/181500 EGRR
EGTT LONDON FIR SEV MTW FCST WI N5220 W00530 - N5500 W00530 - N5500 W00015 - N5024 W00255 - N4959 W00548 - N5220 W00530 - N5220 W00530 FL030/250 STNR NC=



MET'MAP, la Météo Aéronautique d'un coup d'oeil ! - Copyright ORBIFLY Décembre 2007 - Disclaimer

ORBIFLY MET'MAP TEAM :

Programmation & Développement : Alexandra Zaïnal
Conception & Développement : Baudouin d'Aumeries
Co-Programmation & Développement : Marc-Olivier Méhu
Soutien technique & logistique : Manuel Goepfert

Contact : metmap@orbifly.com




SOURCES & CREDITS :

   NOAA